Silves — CQMG — position and weather

sailwx.info

Track history (hours):
 
Tides and Currents Weather Stations Pressure Air Temp Water Temp Dewpoint Dewpoint Depression Visibility Wind Speed Wind Dir Waves Ship Positions

Silves

Last reported at 2017-Nov-18 08:04 UTC. Time now 2017-Nov-20 22:51 UTC.
Position N 46°54' W 006°32'.

Length 90 m; draft 6.4 m.

Type: Cargo ship. MMSI: 255803360.

Date/timePositionNaut miles runAvg speedWind from/ knotsBaromVisibWave heightAir tempDewpointWater temp
2017-Nov-18 08:04N 46°54' W 006°32'14 9.6
2017-Nov-18 06:37N 47°05' W 006°21'12 9.5
2017-Nov-18 05:23N 47°15' W 006°11'4 9.2
2017-Nov-18 04:56N 47°18' W 006°07'14 9.7
2017-Nov-18 03:30N 47°29' W 005°55'5 8.9
2017-Nov-18 02:57N 47°33' W 005°51'4 8.8
2017-Nov-18 02:28N 47°37' W 005°48'5 8.7
2017-Nov-18 01:57N 47°41' W 005°44'4 8.6
2017-Nov-18 01:26N 47°45' W 005°41'4 8.7
2017-Nov-18 00:57N 47°48' W 005°37'4 8.8
2017-Nov-18 00:29N 47°52' W 005°34'6 9.0
2017-Nov-17 23:52N 47°56' W 005°29'4 9.2
2017-Nov-17 23:29N 47°59' W 005°26'5 9.5
2017-Nov-17 22:59N 48°03' W 005°22'510.0
2017-Nov-17 22:28N 48°06' W 005°16'510.0
2017-Nov-17 22:00N 48°09' W 005°11'510.1
2017-Nov-17 21:31N 48°12' W 005°05'5 9.9
2017-Nov-17 21:01N 48°15' W 004°58'510.2
2017-Nov-17 20:31N 48°16' W 004°51'510.7
2017-Nov-17 20:00N 48°18' W 004°43'611.7
2017-Nov-17 19:31N 48°20' W 004°35'510.9
2017-Nov-17 19:01N 48°22' W 004°28'1 1.8
2017-Nov-17 18:28N 48°23' W 004°27'0 0.0
2017-Nov-17 17:58N 48°23' W 004°27'0 0.0
2017-Nov-17 17:28N 48°23' W 004°27'0 0.0
2017-Nov-17 16:58N 48°23' W 004°27'0 0.0
2017-Nov-17 16:28N 48°23' W 004°27'0 0.0
2017-Nov-17 15:58N 48°23' W 004°27'0 0.0
2017-Nov-17 15:28N 48°23' W 004°27'0 0.0
2017-Nov-17 14:58N 48°23' W 004°27'0 0.0
2017-Nov-17 14:28N 48°23' W 004°27'0 0.0
2017-Nov-17 13:58N 48°23' W 004°27'0 0.0
2017-Nov-17 13:28N 48°23' W 004°27'0 0.0
2017-Nov-17 12:58N 48°23' W 004°27'0 0.0
2017-Nov-17 12:28N 48°23' W 004°27'0 0.0
2017-Nov-17 11:58N 48°23' W 004°27'0 0.0
2017-Nov-17 11:28N 48°23' W 004°27'0 0.0
2017-Nov-17 10:58N 48°23' W 004°27'0 0.0
2017-Nov-17 10:28N 48°23' W 004°27'0 0.0
2017-Nov-17 09:58N 48°23' W 004°27'0 0.0
2017-Nov-17 09:28N 48°23' W 004°27'0 0.0
2017-Nov-17 08:58N 48°23' W 004°27'0 0.0
2017-Nov-17 08:28N 48°23' W 004°27'0 0.0
2017-Nov-17 07:58N 48°23' W 004°27'0 0.0
2017-Nov-17 07:28N 48°23' W 004°27'0 0.0
2017-Nov-17 06:58N 48°23' W 004°27'0 0.0
2017-Nov-17 06:28N 48°23' W 004°27'0 0.0
2017-Nov-17 05:58N 48°23' W 004°27'0 0.0
2017-Nov-17 05:28N 48°23' W 004°27'0 0.0
2017-Nov-17 04:58N 48°23' W 004°27'0 0.0
2017-Nov-17 04:28N 48°23' W 004°27'0 0.0
2017-Nov-17 03:58N 48°23' W 004°27'0 0.0
2017-Nov-17 03:28N 48°23' W 004°27'0 0.0
2017-Nov-17 02:58N 48°23' W 004°27'0 0.0
2017-Nov-17 02:28N 48°23' W 004°27'0 0.0
2017-Nov-17 01:58N 48°23' W 004°27'0 0.0
2017-Nov-17 01:28N 48°23' W 004°27'0 0.0
2017-Nov-17 00:58N 48°23' W 004°27'0 0.0
2017-Nov-17 00:28N 48°23' W 004°27'0 0.0
2017-Nov-16 23:58N 48°23' W 004°27'0 0.0
2017-Nov-16 23:28N 48°23' W 004°27'0 0.0
2017-Nov-16 22:58N 48°23' W 004°27'0 0.0
2017-Nov-16 22:28N 48°23' W 004°27'0 0.0
2017-Nov-16 21:58N 48°23' W 004°27'0 0.8
2017-Nov-16 21:30N 48°23' W 004°27'3 6.1
2017-Nov-16 21:01N 48°21' W 004°31'5 9.9
2017-Nov-16 20:30N 48°19' W 004°38'4 8.9
2017-Nov-16 20:00N 48°18' W 004°44'510.4
2017-Nov-16 19:30N 48°17' W 004°52'510.9
2017-Nov-16 19:00N 48°15' W 005°00'611.7
2017-Nov-16 18:30N 48°19' W 005°07'611.7
2017-Nov-16 18:00N 48°23' W 005°14'611.4
2017-Nov-16 17:29N 48°27' W 005°20'5 9.2
2017-Nov-16 16:56N 48°31' W 005°24'410.6
2017-Nov-16 16:30N 48°34' W 005°20'510.0
2017-Nov-16 16:00N 48°38' W 005°15'5 9.2
2017-Nov-16 15:30N 48°41' W 005°09'5 9.1
2017-Nov-16 14:57N 48°44' W 005°03'4 8.9
2017-Nov-16 14:30N 48°47' W 004°59'36 9.9
2017-Nov-16 10:49N 49°12' W 004°19'411.5
2017-Nov-16 10:30N 49°14' W 004°15'1711.8
2017-Nov-16 09:06N 49°25' W 003°55'1011.4
2017-Nov-16 08:12N 49°31' W 003°43'2110.2
2017-Nov-16 06:08N 49°45' W 003°19'3 9.1
2017-Nov-16 05:47N 49°47' W 003°14'4 8.9
2017-Nov-16 05:21N 49°49' W 003°10'4 8.8
2017-Nov-16 04:56N 49°52' W 003°06'5 8.9
2017-Nov-16 04:21N 49°55' W 002°60'3 9.1
2017-Nov-16 04:00N 49°57' W 002°56'5 9.2
2017-Nov-16 03:30N 49°59' W 002°49'5 9.8
2017-Nov-16 02:59N 50°01' W 002°42'510.5
2017-Nov-16 02:29N 50°02' W 002°34'4312.7
2017-Nov-15 23:06N 50°14' W 001°30'113.0
2017-Nov-15 22:59N 50°15' W 001°27'4010.4
2017-Nov-15 19:08N 50°26' W 000°27'1 8.5
2017-Nov-15 19:00N 50°27' W 000°26'4 8.6
2017-Nov-15 18:30N 50°28' W 000°19'4 8.7
2017-Nov-15 18:00N 50°29' W 000°13'5 9.2
2017-Nov-15 17:30N 50°30' W 000°05'5 9.6
2017-Nov-15 17:00N 50°32' E 000°02'510.0
2017-Nov-15 16:30N 50°33' E 000°09'510.6
2017-Nov-15 16:00N 50°35' E 000°17'611.3
2017-Nov-15 15:30N 50°36' E 000°26'611.6
2017-Nov-15 15:00N 50°38' E 000°34'611.9
2017-Nov-15 14:30N 50°41' E 000°42'611.7
2017-Nov-15 14:00N 50°45' E 000°49'611.4
2017-Nov-15 13:30N 50°48' E 000°57'611.0
2017-Nov-15 12:57N 50°52' E 001°05'510.5
2017-Nov-15 12:30N 50°55' E 001°10'510.0
2017-Nov-15 12:00N 50°58' E 001°16'5 9.4
2017-Nov-15 11:30N 51°01' E 001°22'4 8.8
2017-Nov-15 11:00N 51°04' E 001°27'4 8.5
2017-Nov-15 10:30N 51°07' E 001°32'4 8.3
2017-Nov-15 10:00N 51°10' E 001°37'4 8.9
2017-Nov-15 09:30N 51°14' E 001°39'5 9.7
2017-Nov-15 09:00N 51°19' E 001°41'510.4
2017-Nov-15 08:30N 51°24' E 001°43'611.2
2017-Nov-15 08:00N 51°29' E 001°44'612.1
2017-Nov-15 07:30N 51°35' E 001°45'612.6
2017-Nov-15 07:00N 51°42' E 001°45'612.7
2017-Nov-15 06:30N 51°48' E 001°44'612.7
2017-Nov-15 06:00N 51°54' E 001°45'612.7
2017-Nov-15 05:30N 52°01' E 001°47'612.8
2017-Nov-15 05:00N 52°07' E 001°49'1112.2
2017-Nov-15 04:06N 52°18' E 001°53'111.8
2017-Nov-15 04:00N 52°19' E 001°53'611.5
2017-Nov-15 03:29N 52°25' E 001°54'510.8
2017-Nov-15 02:59N 52°30' E 001°54'610.3
2017-Nov-15 02:26N 52°36' E 001°56'4 9.7
2017-Nov-15 02:00N 52°40' E 001°55'5 9.2
2017-Nov-15 01:31N 52°44' E 001°54'5 9.3
2017-Nov-15 01:00N 52°48' E 001°50'5 9.0
2017-Nov-15 00:30N 52°52' E 001°45'4 8.5
2017-Nov-15 00:00N 52°55' E 001°40'4 8.4
2017-Nov-14 23:30N 52°58' E 001°35'4 8.4
2017-Nov-14 23:00N 53°01' E 001°30'5 9.1
2017-Nov-14 22:30N 53°05' E 001°27'5 9.2
2017-Nov-14 22:00N 53°09' E 001°23'5 9.4
2017-Nov-14 21:30N 53°13' E 001°18'45 9.2
2017-Nov-14 16:37N 53°32' E 000°11'111.4
2017-Nov-14 16:29N 53°33' E 000°08'611.8
2017-Nov-14 16:00N 53°35' W 000°00'611.5
2017-Nov-14 15:30N 53°38' W 000°09'1 2.4
2017-Nov-14 14:55N 53°38' W 000°11'0 0.6
2017-Nov-14 14:29N 53°38' W 000°12'0 0.0
2017-Nov-14 13:59N 53°38' W 000°12'0 0.0
2017-Nov-14 13:23N 53°38' W 000°12'0 0.0
2017-Nov-14 12:59N 53°38' W 000°12'0 0.0
2017-Nov-14 12:29N 53°38' W 000°12'0 0.0
2017-Nov-14 11:59N 53°38' W 000°12'0 0.0
2017-Nov-14 11:29N 53°38' W 000°12'0 0.0
2017-Nov-14 10:53N 53°38' W 000°12'0 0.0
2017-Nov-14 10:29N 53°38' W 000°12'0 0.0
2017-Nov-14 09:59N 53°38' W 000°12'0 0.0
2017-Nov-14 09:29N 53°38' W 000°12'0 0.0
2017-Nov-14 08:56N 53°38' W 000°12'0 0.0
2017-Nov-14 08:26N 53°38' W 000°12'0 0.0
2017-Nov-14 07:56N 53°38' W 000°12'0 0.0
2017-Nov-14 07:29N 53°38' W 000°12'0 0.0
2017-Nov-14 06:59N 53°38' W 000°12'0 0.0
2017-Nov-14 06:29N 53°38' W 000°12'0 0.0
2017-Nov-14 05:59N 53°38' W 000°12'0 0.0
2017-Nov-14 05:08N 53°38' W 000°12'0 0.0
2017-Nov-14 04:53N 53°38' W 000°12'0 0.0
2017-Nov-14 04:26N 53°38' W 000°12'0 0.0
2017-Nov-14 03:56N 53°38' W 000°12'0 0.0
2017-Nov-14 03:20N 53°38' W 000°12'0 0.0
2017-Nov-14 02:59N 53°38' W 000°12'0 0.0
2017-Nov-14 02:29N 53°38' W 000°12'0 0.0
2017-Nov-14 01:53N 53°38' W 000°12'0 0.0
2017-Nov-14 01:29N 53°38' W 000°12'0 0.0
2017-Nov-14 00:59N 53°38' W 000°12'0 0.0
2017-Nov-14 00:29N 53°38' W 000°12'0 0.0
2017-Nov-13 23:53N 53°38' W 000°12'0 0.0
2017-Nov-13 23:29N 53°38' W 000°12'0 0.0
2017-Nov-13 22:53N 53°38' W 000°12'0 0.0
2017-Nov-13 22:29N 53°38' W 000°12'0 0.0
2017-Nov-13 21:59N 53°38' W 000°12'  
2017-Nov-11 07:54N 54°03' E 007°58'3 7.5
2017-Nov-11 07:29N 54°02' E 008°03'4 7.3
2017-Nov-11 07:00N 54°01' E 008°08'4 7.8
2017-Nov-11 06:30N 54°01' E 008°15'5 9.3
2017-Nov-11 06:00N 53°60' E 008°23'5 9.9
2017-Nov-11 05:30N 53°58' E 008°31'4 8.6
2017-Nov-11 05:00N 53°57' E 008°38'3 6.8
2017-Nov-11 04:30N 53°54' E 008°41'4 7.6
2017-Nov-11 04:01N 53°51' E 008°45'3 6.4
2017-Nov-11 03:30N 53°50' E 008°50'3 6.7
2017-Nov-11 03:00N 53°51' E 008°56'4 7.1
2017-Nov-11 02:30N 53°52' E 009°02'4 8.0
2017-Nov-11 02:00N 53°53' E 009°08'4 7.7
2017-Nov-11 01:31N 53°53' E 009°15'510.6
2017-Nov-11 01:00N 53°49' E 009°22'611.1
2017-Nov-11 00:30N 53°44' E 009°26'510.9
2017-Nov-11 00:00N 53°40' E 009°31'510.9
2017-Nov-10 23:31N 53°35' E 009°37'510.6
2017-Nov-10 23:00N 53°34' E 009°45'510.6
2017-Nov-10 22:31N 53°33' E 009°54'4 8.5
2017-Nov-10 22:00N 53°29' E 009°58'1 1.3
2017-Nov-10 21:28N 53°28' E 009°58'0 0.0
2017-Nov-10 21:01N 53°28' E 009°58'0 0.0
2017-Nov-10 20:31N 53°28' E 009°58'0 0.0
2017-Nov-10 20:01N 53°28' E 009°58'0 0.0
2017-Nov-10 19:31N 53°28' E 009°58'0 0.0
2017-Nov-10 19:01N 53°28' E 009°58'0 0.0
2017-Nov-10 18:31N 53°28' E 009°58'0 0.0
2017-Nov-10 18:01N 53°28' E 009°58'0 0.0
2017-Nov-10 17:31N 53°28' E 009°58'0 0.0
2017-Nov-10 17:01N 53°28' E 009°58'0 0.0
2017-Nov-10 16:31N 53°28' E 009°58'0 0.0
2017-Nov-10 16:01N 53°28' E 009°58'0 0.0
2017-Nov-10 15:31N 53°28' E 009°58'0 0.0
2017-Nov-10 15:01N 53°28' E 009°58'0 0.0
2017-Nov-10 14:31N 53°28' E 009°58'0 0.0
2017-Nov-10 13:58N 53°28' E 009°58'0 0.0
2017-Nov-10 13:31N 53°28' E 009°58'0 0.0
2017-Nov-10 13:01N 53°28' E 009°58'0 0.0
2017-Nov-10 12:31N 53°28' E 009°58'0 0.0
2017-Nov-10 12:01N 53°28' E 009°58'0 0.0
2017-Nov-10 11:31N 53°28' E 009°58'0 0.0
2017-Nov-10 11:01N 53°28' E 009°58'0 0.0
2017-Nov-10 10:31N 53°28' E 009°58'0 0.0
2017-Nov-10 10:01N 53°28' E 009°58'0 0.0
2017-Nov-10 09:31N 53°28' E 009°58'0 0.0
2017-Nov-10 09:01N 53°28' E 009°58'0 0.0
2017-Nov-10 08:31N 53°28' E 009°58'0 0.0
2017-Nov-10 08:01N 53°28' E 009°58'0 0.0
2017-Nov-10 07:31N 53°28' E 009°58'0 0.0
2017-Nov-10 07:01N 53°28' E 009°58'0 0.0
2017-Nov-10 06:31N 53°28' E 009°58'0 0.0
2017-Nov-10 06:00N 53°28' E 009°58'0 0.0
2017-Nov-10 05:30N 53°28' E 009°58'0 0.0
2017-Nov-10 05:01N 53°28' E 009°58'0 0.0
2017-Nov-10 04:31N 53°28' E 009°58'0 0.0
2017-Nov-10 04:00N 53°28' E 009°58'0 0.0
2017-Nov-10 03:30N 53°28' E 009°58'0 0.0
2017-Nov-10 03:00N 53°28' E 009°58'0 0.0
2017-Nov-10 02:31N 53°28' E 009°58'0 0.0
2017-Nov-10 02:01N 53°28' E 009°58'0 0.0
2017-Nov-10 01:31N 53°28' E 009°58'0 0.0
2017-Nov-10 01:00N 53°28' E 009°58'0 0.0
2017-Nov-10 00:30N 53°28' E 009°58'0 0.0
2017-Nov-10 00:01N 53°28' E 009°58'0 0.0
2017-Nov-09 23:30N 53°28' E 009°58'0 0.0
2017-Nov-09 23:00N 53°28' E 009°58'0 0.0
2017-Nov-09 22:28N 53°28' E 009°58'0 0.0
2017-Nov-09 22:00N 53°28' E 009°58'0 0.0
2017-Nov-09 21:30N 53°28' E 009°58'0 0.0
2017-Nov-09 21:00N 53°28' E 009°58'0 0.0
2017-Nov-09 20:30N 53°28' E 009°58'0 0.0
2017-Nov-09 20:00N 53°28' E 009°58'0 0.0
2017-Nov-09 19:30N 53°28' E 009°58'2 3.3
2017-Nov-09 19:00N 53°30' E 009°57'3 5.3
2017-Nov-09 18:30N 53°32' E 009°56'4 8.1
2017-Nov-09 18:00N 53°33' E 009°49'5 9.8
2017-Nov-09 17:30N 53°34' E 009°41'5 9.4
2017-Nov-09 17:00N 53°37' E 009°34'510.3
2017-Nov-09 16:30N 53°41' E 009°30'510.9
2017-Nov-09 16:00N 53°45' E 009°24'510.9
2017-Nov-09 15:30N 53°50' E 009°20'510.4
2017-Nov-09 15:00N 53°53' E 009°13'611.6
2017-Nov-09 14:31N 53°52' E 009°03'611.6
2017-Nov-09 14:01N 53°50' E 008°54'611.5
2017-Nov-09 13:30N 53°52' E 008°44'612.3
2017-Nov-09 13:00N 53°57' E 008°38'713.9
2017-Nov-09 12:30N 53°59' E 008°27'713.4
2017-Nov-09 11:59N 53°60' E 008°15'612.2
2017-Nov-09 11:29N 53°59' E 008°05'612.1
2017-Nov-09 10:59N 53°57' E 007°55'3 0.6
2017-Nov-09 05:28N 53°54' E 007°51'0 0.0
2017-Nov-09 04:58N 53°54' E 007°51'0 0.0
2017-Nov-09 04:28N 53°54' E 007°51'0 0.0
2017-Nov-09 02:13N 53°54' E 007°51'0 0.0
2017-Nov-09 00:31N 53°54' E 007°51'0 0.0
2017-Nov-09 00:10N 53°54' E 007°51'0 0.0
2017-Nov-08 23:55N 53°54' E 007°51'0 0.0
2017-Nov-08 23:28N 53°54' E 007°51'0 0.0
2017-Nov-08 22:55N 53°54' E 007°51'0 0.1
2017-Nov-08 22:28N 53°54' E 007°51'0 0.1
2017-Nov-08 21:52N 53°54' E 007°51'2 5.3
2017-Nov-08 21:30N 53°53' E 007°52'5 9.4
2017-Nov-08 21:00N 53°51' E 007°60'510.9
2017-Nov-08 20:30N 53°48' E 008°08'612.2
2017-Nov-08 20:00N 53°44' E 008°15'713.2
2017-Nov-08 19:30N 53°40' E 008°23'713.3
2017-Nov-08 19:00N 53°35' E 008°31'510.0
2017-Nov-08 18:30N 53°30' E 008°31'612.3
2017-Nov-08 18:00N 53°24' E 008°30'510.1
2017-Nov-08 17:30N 53°19' E 008°29'611.4
2017-Nov-08 17:00N 53°13' E 008°29'4 8.9
2017-Nov-08 16:30N 53°10' E 008°35'4 7.8
2017-Nov-08 16:00N 53°08' E 008°39'2 4.1
2017-Nov-08 15:30N 53°07' E 008°43'0 0.7
2017-Nov-08 15:00N 53°07' E 008°43'0 0.0
2017-Nov-08 14:30N 53°07' E 008°43'0 0.0
2017-Nov-08 14:00N 53°07' E 008°43'0 0.0
2017-Nov-08 13:30N 53°07' E 008°43'0 0.0
2017-Nov-08 13:00N 53°07' E 008°43'0 0.0
2017-Nov-08 12:30N 53°07' E 008°43'0 0.0
2017-Nov-08 12:00N 53°07' E 008°43'0 0.0
2017-Nov-08 11:30N 53°07' E 008°43'0 0.0
2017-Nov-08 11:00N 53°07' E 008°43'0 0.0
2017-Nov-08 10:30N 53°07' E 008°43'0 0.0
2017-Nov-08 10:00N 53°07' E 008°43'0 0.0
2017-Nov-08 09:30N 53°07' E 008°43'0 0.0
2017-Nov-08 09:00N 53°07' E 008°43'0 0.0
2017-Nov-08 08:30N 53°07' E 008°43'  
Track history (hours):
 
Tides and Currents Weather Stations Pressure Air Temp Water Temp Dewpoint Dewpoint Depression Visibility Wind Speed Wind Dir Waves Ship Positions

Silves

Last reported at 2017-Nov-18 08:04 UTC. Time now 2017-Nov-20 22:51 UTC.
Position N 46°54' W 006°32'.

Length 90 m; draft 6.4 m.

Type: Cargo ship. MMSI: 255803360.

Date/timePositionNaut miles runAvg speedWind from/ knotsBaromVisibWave heightAir tempDewpointWater temp
2017-Nov-18 08:04N 46°54' W 006°32'14 9.6
2017-Nov-18 06:37N 47°05' W 006°21'12 9.5
2017-Nov-18 05:23N 47°15' W 006°11'4 9.2
2017-Nov-18 04:56N 47°18' W 006°07'14 9.7
2017-Nov-18 03:30N 47°29' W 005°55'5 8.9
2017-Nov-18 02:57N 47°33' W 005°51'4 8.8
2017-Nov-18 02:28N 47°37' W 005°48'5 8.7
2017-Nov-18 01:57N 47°41' W 005°44'4 8.6
2017-Nov-18 01:26N 47°45' W 005°41'4 8.7
2017-Nov-18 00:57N 47°48' W 005°37'4 8.8
2017-Nov-18 00:29N 47°52' W 005°34'6 9.0
2017-Nov-17 23:52N 47°56' W 005°29'4 9.2
2017-Nov-17 23:29N 47°59' W 005°26'5 9.5
2017-Nov-17 22:59N 48°03' W 005°22'510.0
2017-Nov-17 22:28N 48°06' W 005°16'510.0
2017-Nov-17 22:00N 48°09' W 005°11'510.1
2017-Nov-17 21:31N 48°12' W 005°05'5 9.9
2017-Nov-17 21:01N 48°15' W 004°58'510.2
2017-Nov-17 20:31N 48°16' W 004°51'510.7
2017-Nov-17 20:00N 48°18' W 004°43'611.7
2017-Nov-17 19:31N 48°20' W 004°35'510.9
2017-Nov-17 19:01N 48°22' W 004°28'1 1.8
2017-Nov-17 18:28N 48°23' W 004°27'0 0.0
2017-Nov-17 17:58N 48°23' W 004°27'0 0.0
2017-Nov-17 17:28N 48°23' W 004°27'0 0.0
2017-Nov-17 16:58N 48°23' W 004°27'0 0.0
2017-Nov-17 16:28N 48°23' W 004°27'0 0.0
2017-Nov-17 15:58N 48°23' W 004°27'0 0.0
2017-Nov-17 15:28N 48°23' W 004°27'0 0.0
2017-Nov-17 14:58N 48°23' W 004°27'0 0.0
2017-Nov-17 14:28N 48°23' W 004°27'0 0.0
2017-Nov-17 13:58N 48°23' W 004°27'0 0.0
2017-Nov-17 13:28N 48°23' W 004°27'0 0.0
2017-Nov-17 12:58N 48°23' W 004°27'0 0.0
2017-Nov-17 12:28N 48°23' W 004°27'0 0.0
2017-Nov-17 11:58N 48°23' W 004°27'0 0.0
2017-Nov-17 11:28N 48°23' W 004°27'0 0.0
2017-Nov-17 10:58N 48°23' W 004°27'0 0.0
2017-Nov-17 10:28N 48°23' W 004°27'0 0.0
2017-Nov-17 09:58N 48°23' W 004°27'0 0.0
2017-Nov-17 09:28N 48°23' W 004°27'0 0.0
2017-Nov-17 08:58N 48°23' W 004°27'0 0.0
2017-Nov-17 08:28N 48°23' W 004°27'0 0.0
2017-Nov-17 07:58N 48°23' W 004°27'0 0.0
2017-Nov-17 07:28N 48°23' W 004°27'0 0.0
2017-Nov-17 06:58N 48°23' W 004°27'0 0.0
2017-Nov-17 06:28N 48°23' W 004°27'0 0.0
2017-Nov-17 05:58N 48°23' W 004°27'0 0.0
2017-Nov-17 05:28N 48°23' W 004°27'0 0.0
2017-Nov-17 04:58N 48°23' W 004°27'0 0.0
2017-Nov-17 04:28N 48°23' W 004°27'0 0.0
2017-Nov-17 03:58N 48°23' W 004°27'0 0.0
2017-Nov-17 03:28N 48°23' W 004°27'0 0.0
2017-Nov-17 02:58N 48°23' W 004°27'0 0.0
2017-Nov-17 02:28N 48°23' W 004°27'0 0.0
2017-Nov-17 01:58N 48°23' W 004°27'0 0.0
2017-Nov-17 01:28N 48°23' W 004°27'0 0.0
2017-Nov-17 00:58N 48°23' W 004°27'0 0.0
2017-Nov-17 00:28N 48°23' W 004°27'0 0.0
2017-Nov-16 23:58N 48°23' W 004°27'0 0.0
2017-Nov-16 23:28N 48°23' W 004°27'0 0.0
2017-Nov-16 22:58N 48°23' W 004°27'0 0.0
2017-Nov-16 22:28N 48°23' W 004°27'0 0.0
2017-Nov-16 21:58N 48°23' W 004°27'0 0.8
2017-Nov-16 21:30N 48°23' W 004°27'3 6.1
2017-Nov-16 21:01N 48°21' W 004°31'5 9.9
2017-Nov-16 20:30N 48°19' W 004°38'4 8.9
2017-Nov-16 20:00N 48°18' W 004°44'510.4
2017-Nov-16 19:30N 48°17' W 004°52'510.9
2017-Nov-16 19:00N 48°15' W 005°00'611.7
2017-Nov-16 18:30N 48°19' W 005°07'611.7
2017-Nov-16 18:00N 48°23' W 005°14'611.4
2017-Nov-16 17:29N 48°27' W 005°20'5 9.2
2017-Nov-16 16:56N 48°31' W 005°24'410.6
2017-Nov-16 16:30N 48°34' W 005°20'510.0
2017-Nov-16 16:00N 48°38' W 005°15'5 9.2
2017-Nov-16 15:30N 48°41' W 005°09'5 9.1
2017-Nov-16 14:57N 48°44' W 005°03'4 8.9
2017-Nov-16 14:30N 48°47' W 004°59'36 9.9
2017-Nov-16 10:49N 49°12' W 004°19'411.5
2017-Nov-16 10:30N 49°14' W 004°15'1711.8
2017-Nov-16 09:06N 49°25' W 003°55'1011.4
2017-Nov-16 08:12N 49°31' W 003°43'2110.2
2017-Nov-16 06:08N 49°45' W 003°19'3 9.1
2017-Nov-16 05:47N 49°47' W 003°14'4 8.9
2017-Nov-16 05:21N 49°49' W 003°10'4 8.8
2017-Nov-16 04:56N 49°52' W 003°06'5 8.9
2017-Nov-16 04:21N 49°55' W 002°60'3 9.1
2017-Nov-16 04:00N 49°57' W 002°56'5 9.2
2017-Nov-16 03:30N 49°59' W 002°49'5 9.8
2017-Nov-16 02:59N 50°01' W 002°42'510.5
2017-Nov-16 02:29N 50°02' W 002°34'4312.7
2017-Nov-15 23:06N 50°14' W 001°30'113.0
2017-Nov-15 22:59N 50°15' W 001°27'4010.4
2017-Nov-15 19:08N 50°26' W 000°27'1 8.5
2017-Nov-15 19:00N 50°27' W 000°26'4 8.6
2017-Nov-15 18:30N 50°28' W 000°19'4 8.7
2017-Nov-15 18:00N 50°29' W 000°13'5 9.2
2017-Nov-15 17:30N 50°30' W 000°05'5 9.6
2017-Nov-15 17:00N 50°32' E 000°02'510.0
2017-Nov-15 16:30N 50°33' E 000°09'510.6
2017-Nov-15 16:00N 50°35' E 000°17'611.3
2017-Nov-15 15:30N 50°36' E 000°26'611.6
2017-Nov-15 15:00N 50°38' E 000°34'611.9
2017-Nov-15 14:30N 50°41' E 000°42'611.7
2017-Nov-15 14:00N 50°45' E 000°49'611.4
2017-Nov-15 13:30N 50°48' E 000°57'611.0
2017-Nov-15 12:57N 50°52' E 001°05'510.5
2017-Nov-15 12:30N 50°55' E 001°10'510.0
2017-Nov-15 12:00N 50°58' E 001°16'5 9.4
2017-Nov-15 11:30N 51°01' E 001°22'4 8.8
2017-Nov-15 11:00N 51°04' E 001°27'4 8.5
2017-Nov-15 10:30N 51°07' E 001°32'4 8.3
2017-Nov-15 10:00N 51°10' E 001°37'4 8.9
2017-Nov-15 09:30N 51°14' E 001°39'5 9.7
2017-Nov-15 09:00N 51°19' E 001°41'510.4
2017-Nov-15 08:30N 51°24' E 001°43'611.2
2017-Nov-15 08:00N 51°29' E 001°44'612.1
2017-Nov-15 07:30N 51°35' E 001°45'612.6
2017-Nov-15 07:00N 51°42' E 001°45'612.7
2017-Nov-15 06:30N 51°48' E 001°44'612.7
2017-Nov-15 06:00N 51°54' E 001°45'612.7
2017-Nov-15 05:30N 52°01' E 001°47'612.8
2017-Nov-15 05:00N 52°07' E 001°49'1112.2
2017-Nov-15 04:06N 52°18' E 001°53'111.8
2017-Nov-15 04:00N 52°19' E 001°53'611.5
2017-Nov-15 03:29N 52°25' E 001°54'510.8
2017-Nov-15 02:59N 52°30' E 001°54'610.3
2017-Nov-15 02:26N 52°36' E 001°56'4 9.7
2017-Nov-15 02:00N 52°40' E 001°55'5 9.2
2017-Nov-15 01:31N 52°44' E 001°54'5 9.3
2017-Nov-15 01:00N 52°48' E 001°50'5 9.0
2017-Nov-15 00:30N 52°52' E 001°45'4 8.5
2017-Nov-15 00:00N 52°55' E 001°40'4 8.4
2017-Nov-14 23:30N 52°58' E 001°35'4 8.4
2017-Nov-14 23:00N 53°01' E 001°30'5 9.1
2017-Nov-14 22:30N 53°05' E 001°27'5 9.2
2017-Nov-14 22:00N 53°09' E 001°23'5 9.4
2017-Nov-14 21:30N 53°13' E 001°18'45 9.2
2017-Nov-14 16:37N 53°32' E 000°11'111.4
2017-Nov-14 16:29N 53°33' E 000°08'611.8
2017-Nov-14 16:00N 53°35' W 000°00'611.5
2017-Nov-14 15:30N 53°38' W 000°09'1 2.4
2017-Nov-14 14:55N 53°38' W 000°11'0 0.6
2017-Nov-14 14:29N 53°38' W 000°12'0 0.0
2017-Nov-14 13:59N 53°38' W 000°12'0 0.0
2017-Nov-14 13:23N 53°38' W 000°12'0 0.0
2017-Nov-14 12:59N 53°38' W 000°12'0 0.0
2017-Nov-14 12:29N 53°38' W 000°12'0 0.0
2017-Nov-14 11:59N 53°38' W 000°12'0 0.0
2017-Nov-14 11:29N 53°38' W 000°12'0 0.0
2017-Nov-14 10:53N 53°38' W 000°12'0 0.0
2017-Nov-14 10:29N 53°38' W 000°12'0 0.0
2017-Nov-14 09:59N 53°38' W 000°12'0 0.0
2017-Nov-14 09:29N 53°38' W 000°12'0 0.0
2017-Nov-14 08:56N 53°38' W 000°12'0 0.0
2017-Nov-14 08:26N 53°38' W 000°12'0 0.0
2017-Nov-14 07:56N 53°38' W 000°12'0 0.0
2017-Nov-14 07:29N 53°38' W 000°12'0 0.0
2017-Nov-14 06:59N 53°38' W 000°12'0 0.0
2017-Nov-14 06:29N 53°38' W 000°12'0 0.0
2017-Nov-14 05:59N 53°38' W 000°12'0 0.0
2017-Nov-14 05:08N 53°38' W 000°12'0 0.0
2017-Nov-14 04:53N 53°38' W 000°12'0 0.0
2017-Nov-14 04:26N 53°38' W 000°12'0 0.0
2017-Nov-14 03:56N 53°38' W 000°12'0 0.0
2017-Nov-14 03:20N 53°38' W 000°12'0 0.0
2017-Nov-14 02:59N 53°38' W 000°12'0 0.0
2017-Nov-14 02:29N 53°38' W 000°12'0 0.0
2017-Nov-14 01:53N 53°38' W 000°12'0 0.0
2017-Nov-14 01:29N 53°38' W 000°12'0 0.0
2017-Nov-14 00:59N 53°38' W 000°12'0 0.0
2017-Nov-14 00:29N 53°38' W 000°12'0 0.0
2017-Nov-13 23:53N 53°38' W 000°12'0 0.0
2017-Nov-13 23:29N 53°38' W 000°12'0 0.0
2017-Nov-13 22:53N 53°38' W 000°12'0 0.0
2017-Nov-13 22:29N 53°38' W 000°12'0 0.0
2017-Nov-13 21:59N 53°38' W 000°12'  
2017-Nov-11 07:54N 54°03' E 007°58'3 7.5
2017-Nov-11 07:29N 54°02' E 008°03'4 7.3
2017-Nov-11 07:00N 54°01' E 008°08'4 7.8
2017-Nov-11 06:30N 54°01' E 008°15'5 9.3
2017-Nov-11 06:00N 53°60' E 008°23'5 9.9
2017-Nov-11 05:30N 53°58' E 008°31'4 8.6
2017-Nov-11 05:00N 53°57' E 008°38'3 6.8
2017-Nov-11 04:30N 53°54' E 008°41'4 7.6
2017-Nov-11 04:01N 53°51' E 008°45'3 6.4
2017-Nov-11 03:30N 53°50' E 008°50'3 6.7
2017-Nov-11 03:00N 53°51' E 008°56'4 7.1
2017-Nov-11 02:30N 53°52' E 009°02'4 8.0
2017-Nov-11 02:00N 53°53' E 009°08'4 7.7
2017-Nov-11 01:31N 53°53' E 009°15'510.6
2017-Nov-11 01:00N 53°49' E 009°22'611.1
2017-Nov-11 00:30N 53°44' E 009°26'510.9
2017-Nov-11 00:00N 53°40' E 009°31'510.9
2017-Nov-10 23:31N 53°35' E 009°37'510.6
2017-Nov-10 23:00N 53°34' E 009°45'510.6
2017-Nov-10 22:31N 53°33' E 009°54'4 8.5
2017-Nov-10 22:00N 53°29' E 009°58'1 1.3
2017-Nov-10 21:28N 53°28' E 009°58'0 0.0
2017-Nov-10 21:01N 53°28' E 009°58'0 0.0
2017-Nov-10 20:31N 53°28' E 009°58'0 0.0
2017-Nov-10 20:01N 53°28' E 009°58'0 0.0
2017-Nov-10 19:31N 53°28' E 009°58'0 0.0
2017-Nov-10 19:01N 53°28' E 009°58'0 0.0
2017-Nov-10 18:31N 53°28' E 009°58'0 0.0
2017-Nov-10 18:01N 53°28' E 009°58'0 0.0
2017-Nov-10 17:31N 53°28' E 009°58'0 0.0
2017-Nov-10 17:01N 53°28' E 009°58'0 0.0
2017-Nov-10 16:31N 53°28' E 009°58'0 0.0
2017-Nov-10 16:01N 53°28' E 009°58'0 0.0
2017-Nov-10 15:31N 53°28' E 009°58'0 0.0
2017-Nov-10 15:01N 53°28' E 009°58'0 0.0
2017-Nov-10 14:31N 53°28' E 009°58'0 0.0
2017-Nov-10 13:58N 53°28' E 009°58'0 0.0
2017-Nov-10 13:31N 53°28' E 009°58'0 0.0
2017-Nov-10 13:01N 53°28' E 009°58'0 0.0
2017-Nov-10 12:31N 53°28' E 009°58'0 0.0
2017-Nov-10 12:01N 53°28' E 009°58'0 0.0
2017-Nov-10 11:31N 53°28' E 009°58'0 0.0
2017-Nov-10 11:01N 53°28' E 009°58'0 0.0
2017-Nov-10 10:31N 53°28' E 009°58'0 0.0
2017-Nov-10 10:01N 53°28' E 009°58'0 0.0
2017-Nov-10 09:31N 53°28' E 009°58'0 0.0
2017-Nov-10 09:01N 53°28' E 009°58'0 0.0
2017-Nov-10 08:31N 53°28' E 009°58'0 0.0
2017-Nov-10 08:01N 53°28' E 009°58'0 0.0
2017-Nov-10 07:31N 53°28' E 009°58'0 0.0
2017-Nov-10 07:01N 53°28' E 009°58'0 0.0
2017-Nov-10 06:31N 53°28' E 009°58'0 0.0
2017-Nov-10 06:00N 53°28' E 009°58'0 0.0
2017-Nov-10 05:30N 53°28' E 009°58'0 0.0
2017-Nov-10 05:01N 53°28' E 009°58'0 0.0
2017-Nov-10 04:31N 53°28' E 009°58'0 0.0
2017-Nov-10 04:00N 53°28' E 009°58'0 0.0
2017-Nov-10 03:30N 53°28' E 009°58'0 0.0
2017-Nov-10 03:00N 53°28' E 009°58'0 0.0
2017-Nov-10 02:31N 53°28' E 009°58'0 0.0
2017-Nov-10 02:01N 53°28' E 009°58'0 0.0
2017-Nov-10 01:31N 53°28' E 009°58'0 0.0
2017-Nov-10 01:00N 53°28' E 009°58'0 0.0
2017-Nov-10 00:30N 53°28' E 009°58'0 0.0
2017-Nov-10 00:01N 53°28' E 009°58'0 0.0
2017-Nov-09 23:30N 53°28' E 009°58'0 0.0
2017-Nov-09 23:00N 53°28' E 009°58'0 0.0
2017-Nov-09 22:28N 53°28' E 009°58'0 0.0
2017-Nov-09 22:00N 53°28' E 009°58'0 0.0
2017-Nov-09 21:30N 53°28' E 009°58'0 0.0
2017-Nov-09 21:00N 53°28' E 009°58'0 0.0
2017-Nov-09 20:30N 53°28' E 009°58'0 0.0
2017-Nov-09 20:00N 53°28' E 009°58'0 0.0
2017-Nov-09 19:30N 53°28' E 009°58'2 3.3
2017-Nov-09 19:00N 53°30' E 009°57'3 5.3
2017-Nov-09 18:30N 53°32' E 009°56'4 8.1
2017-Nov-09 18:00N 53°33' E 009°49'5 9.8
2017-Nov-09 17:30N 53°34' E 009°41'5 9.4
2017-Nov-09 17:00N 53°37' E 009°34'510.3
2017-Nov-09 16:30N 53°41' E 009°30'510.9
2017-Nov-09 16:00N 53°45' E 009°24'510.9
2017-Nov-09 15:30N 53°50' E 009°20'510.4
2017-Nov-09 15:00N 53°53' E 009°13'611.6
2017-Nov-09 14:31N 53°52' E 009°03'611.6
2017-Nov-09 14:01N 53°50' E 008°54'611.5
2017-Nov-09 13:30N 53°52' E 008°44'612.3
2017-Nov-09 13:00N 53°57' E 008°38'713.9
2017-Nov-09 12:30N 53°59' E 008°27'713.4
2017-Nov-09 11:59N 53°60' E 008°15'612.2
2017-Nov-09 11:29N 53°59' E 008°05'612.1
2017-Nov-09 10:59N 53°57' E 007°55'3 0.6
2017-Nov-09 05:28N 53°54' E 007°51'0 0.0
2017-Nov-09 04:58N 53°54' E 007°51'0 0.0
2017-Nov-09 04:28N 53°54' E 007°51'0 0.0
2017-Nov-09 02:13N 53°54' E 007°51'0 0.0
2017-Nov-09 00:31N 53°54' E 007°51'0 0.0
2017-Nov-09 00:10N 53°54' E 007°51'0 0.0
2017-Nov-08 23:55N 53°54' E 007°51'0 0.0
2017-Nov-08 23:28N 53°54' E 007°51'0 0.0
2017-Nov-08 22:55N 53°54' E 007°51'0 0.1
2017-Nov-08 22:28N 53°54' E 007°51'0 0.1
2017-Nov-08 21:52N 53°54' E 007°51'2 5.3
2017-Nov-08 21:30N 53°53' E 007°52'5 9.4
2017-Nov-08 21:00N 53°51' E 007°60'510.9
2017-Nov-08 20:30N 53°48' E 008°08'612.2
2017-Nov-08 20:00N 53°44' E 008°15'713.2
2017-Nov-08 19:30N 53°40' E 008°23'713.3
2017-Nov-08 19:00N 53°35' E 008°31'510.0
2017-Nov-08 18:30N 53°30' E 008°31'612.3
2017-Nov-08 18:00N 53°24' E 008°30'510.1
2017-Nov-08 17:30N 53°19' E 008°29'611.4
2017-Nov-08 17:00N 53°13' E 008°29'4 8.9
2017-Nov-08 16:30N 53°10' E 008°35'4 7.8
2017-Nov-08 16:00N 53°08' E 008°39'2 4.1
2017-Nov-08 15:30N 53°07' E 008°43'0 0.7
2017-Nov-08 15:00N 53°07' E 008°43'0 0.0
2017-Nov-08 14:30N 53°07' E 008°43'0 0.0
2017-Nov-08 14:00N 53°07' E 008°43'0 0.0
2017-Nov-08 13:30N 53°07' E 008°43'0 0.0
2017-Nov-08 13:00N 53°07' E 008°43'0 0.0
2017-Nov-08 12:30N 53°07' E 008°43'0 0.0
2017-Nov-08 12:00N 53°07' E 008°43'0 0.0
2017-Nov-08 11:30N 53°07' E 008°43'0 0.0
2017-Nov-08 11:00N 53°07' E 008°43'0 0.0
2017-Nov-08 10:30N 53°07' E 008°43'0 0.0
2017-Nov-08 10:00N 53°07' E 008°43'0 0.0
2017-Nov-08 09:30N 53°07' E 008°43'0 0.0
2017-Nov-08 09:00N 53°07' E 008°43'0 0.0
2017-Nov-08 08:30N 53°07' E 008°43'  

Dump ship's entire track history